createdAt,value
2018-12-02T00:01:14.715Z,8.92
2018-12-02T00:03:42.738Z,8.90
2018-12-02T00:06:10.773Z,8.97
2018-12-02T00:08:38.800Z,8.96
2018-12-02T00:11:06.819Z,9.09
2018-12-02T00:13:34.927Z,9.06
2018-12-02T00:16:02.947Z,9.10
2018-12-02T00:18:30.959Z,9.07
2018-12-02T00:20:58.963Z,9.20
2018-12-02T00:23:26.958Z,9.15
2018-12-02T00:25:54.990Z,9.04
2018-12-02T00:28:23.027Z,9.09
2018-12-02T00:30:51.040Z,9.24
2018-12-02T00:33:19.050Z,9.15
2018-12-02T00:35:47.074Z,9.10
2018-12-02T00:38:15.111Z,9.14
2018-12-02T00:40:43.108Z,9.24
2018-12-02T00:43:11.168Z,9.30
2018-12-02T00:45:39.207Z,9.35
2018-12-02T00:48:08.367Z,9.27
2018-12-02T00:50:36.440Z,9.26
2018-12-02T00:53:05.035Z,9.31
2018-12-02T00:55:47.589Z,9.25
2018-12-02T00:58:15.554Z,9.20
2018-12-02T01:00:43.535Z,9.27
2018-12-02T01:03:11.597Z,9.20
2018-12-02T01:05:39.606Z,9.25
2018-12-02T01:08:07.766Z,9.35
2018-12-02T01:10:36.627Z,9.31
2018-12-02T01:13:06.427Z,9.27
2018-12-02T01:15:34.623Z,9.38
2018-12-02T01:18:02.631Z,9.31
2018-12-02T01:20:30.627Z,9.27
2018-12-02T01:22:58.598Z,9.29
2018-12-02T01:25:26.887Z,9.29
2018-12-02T01:27:54.879Z,9.24
2018-12-02T01:30:23.797Z,9.40
2018-12-02T01:32:52.931Z,9.39
2018-12-02T01:35:20.922Z,9.30
2018-12-02T01:37:49.001Z,9.33
2018-12-02T01:40:18.979Z,9.33
2018-12-02T01:42:47.084Z,9.35
2018-12-02T01:45:18.983Z,9.49
2018-12-02T01:47:47.030Z,9.38
2018-12-02T01:50:15.906Z,9.31
2018-12-02T01:52:44.822Z,9.44
2018-12-02T01:55:12.800Z,9.30
2018-12-02T01:57:40.783Z,9.34
2018-12-02T02:00:19.580Z,9.49
2018-12-02T02:02:47.695Z,9.58
2018-12-02T02:05:16.743Z,9.53
2018-12-02T02:07:44.738Z,9.40
2018-12-02T02:10:15.822Z,9.53
2018-12-02T02:12:43.835Z,9.50
2018-12-02T02:15:14.842Z,9.49
2018-12-02T02:17:42.869Z,9.52
2018-12-02T02:20:15.942Z,9.57
2018-12-02T02:22:44.170Z,9.65
2018-12-02T02:25:13.143Z,9.60
2018-12-02T02:27:42.271Z,9.44
2018-12-02T02:30:17.922Z,9.40
2018-12-02T02:32:45.923Z,9.40
2018-12-02T02:35:14.407Z,9.46
2018-12-02T02:37:42.449Z,9.49
2018-12-02T02:40:30.299Z,9.56
2018-12-02T02:42:58.314Z,9.56
2018-12-02T02:45:26.341Z,9.53
2018-12-02T02:47:54.371Z,9.38
2018-12-02T02:50:23.422Z,9.52
2018-12-02T02:52:57.501Z,9.54
2018-12-02T02:55:25.506Z,9.45
2018-12-02T02:57:53.576Z,9.49
2018-12-02T03:00:22.442Z,9.60
2018-12-02T03:02:50.618Z,9.65
2018-12-02T03:05:18.799Z,9.56
2018-12-02T03:07:46.795Z,9.69
2018-12-02T03:10:15.682Z,9.68
2018-12-02T03:12:44.612Z,9.69
2018-12-02T03:15:13.517Z,9.75
2018-12-02T03:17:41.707Z,9.78
2018-12-02T03:20:13.343Z,9.70
2018-12-02T03:22:42.051Z,9.80
2018-12-02T03:25:12.182Z,9.70
2018-12-02T03:27:40.191Z,9.57
2018-12-02T03:30:11.919Z,9.50
2018-12-02T03:32:40.180Z,9.46
2018-12-02T03:35:12.192Z,9.42
2018-12-02T03:37:40.184Z,9.42
2018-12-02T03:40:10.693Z,9.38
2018-12-02T03:42:38.702Z,9.50
2018-12-02T03:45:11.242Z,9.42
2018-12-02T03:47:39.251Z,9.57
2018-12-02T03:50:17.516Z,9.59
2018-12-02T03:52:41.574Z,9.69
2018-12-02T03:55:09.639Z,9.51
2018-12-02T03:57:37.643Z,9.56
2018-12-02T04:00:11.453Z,9.57
2018-12-02T04:02:39.612Z,9.58
2018-12-02T04:05:08.455Z,9.62
2018-12-02T04:07:36.440Z,9.66
2018-12-02T04:10:06.934Z,9.77
2018-12-02T04:12:34.947Z,9.94
2018-12-02T04:15:03.215Z,9.81
2018-12-02T04:17:31.234Z,9.78
2018-12-02T04:19:59.240Z,9.79
2018-12-02T04:22:27.275Z,9.77
2018-12-02T04:24:55.274Z,9.86
2018-12-02T04:27:23.268Z,9.83
2018-12-02T04:29:51.265Z,9.91
2018-12-02T04:32:19.254Z,9.80
2018-12-02T04:34:47.228Z,9.76
2018-12-02T04:37:15.228Z,9.90
2018-12-02T04:39:43.302Z,9.89
2018-12-02T04:42:11.315Z,9.71
2018-12-02T04:44:39.295Z,9.67
2018-12-02T04:47:07.287Z,9.72
2018-12-02T04:49:35.293Z,9.53
2018-12-02T04:52:03.315Z,9.68
2018-12-02T04:54:31.329Z,9.61
2018-12-02T04:56:59.324Z,9.46
2018-12-02T04:59:27.323Z,9.55
2018-12-02T05:01:55.328Z,9.50
2018-12-02T05:04:23.322Z,9.45
2018-12-02T05:06:51.337Z,9.46
2018-12-02T05:09:19.359Z,9.38
2018-12-02T05:11:47.362Z,9.51
2018-12-02T05:14:15.381Z,9.49
2018-12-02T05:16:43.394Z,9.48
2018-12-02T05:19:11.400Z,9.51
2018-12-02T05:21:39.378Z,9.64
2018-12-02T05:24:07.475Z,9.53
2018-12-02T05:26:35.483Z,9.45
2018-12-02T05:29:03.499Z,9.53
2018-12-02T05:31:31.495Z,9.37
2018-12-02T05:33:59.493Z,9.30
2018-12-02T05:36:27.460Z,9.39
2018-12-02T05:38:55.467Z,9.29
2018-12-02T05:41:27.680Z,9.31
2018-12-02T05:43:55.711Z,9.27
2018-12-02T05:46:23.687Z,9.17
2018-12-02T05:48:51.690Z,9.22
2018-12-02T05:51:19.679Z,9.18
2018-12-02T05:53:47.670Z,9.05
2018-12-02T05:56:15.686Z,9.06
2018-12-02T05:58:43.699Z,8.98
2018-12-02T06:01:11.730Z,8.86
2018-12-02T06:03:39.760Z,8.85
2018-12-02T06:06:07.747Z,8.79
2018-12-02T06:08:35.743Z,8.69
2018-12-02T06:11:03.734Z,8.72
2018-12-02T06:13:31.731Z,8.70
2018-12-02T06:15:59.719Z,8.66
2018-12-02T06:18:27.773Z,8.75
2018-12-02T06:20:55.834Z,8.62
2018-12-02T06:23:23.861Z,8.65
2018-12-02T06:25:51.899Z,8.70
2018-12-02T06:28:19.889Z,8.86
2018-12-02T06:30:47.865Z,8.83
2018-12-02T06:33:15.899Z,8.81
2018-12-02T06:35:43.878Z,8.87
2018-12-02T06:38:11.863Z,8.91
2018-12-02T06:40:39.868Z,8.89
2018-12-02T06:43:07.894Z,8.78
2018-12-02T06:45:36.199Z,8.88
2018-12-02T06:48:04.191Z,8.87
2018-12-02T06:50:32.174Z,8.80
2018-12-02T06:53:00.206Z,8.91
2018-12-02T06:55:33.020Z,8.87
2018-12-02T06:58:10.606Z,8.83
2018-12-02T07:02:56.449Z,8.89
2018-12-02T07:05:26.428Z,8.86
2018-12-02T07:07:54.390Z,8.88
2018-12-02T07:10:22.438Z,8.81
2018-12-02T07:12:50.579Z,8.88
2018-12-02T07:15:18.567Z,8.95
2018-12-02T07:17:53.451Z,8.97
2018-12-02T07:20:21.459Z,9.07
2018-12-02T07:22:49.494Z,9.15
2018-12-02T07:25:17.804Z,9.02
2018-12-02T07:27:45.775Z,8.92
2018-12-02T07:30:13.758Z,8.99
2018-12-02T07:32:41.806Z,9.00
2018-12-02T07:35:11.567Z,9.07
2018-12-02T07:37:40.444Z,9.05
2018-12-02T07:40:17.939Z,8.95
2018-12-02T07:42:46.151Z,9.12
2018-12-02T07:45:14.173Z,9.14
2018-12-02T07:47:42.147Z,9.04
2018-12-02T07:50:10.186Z,9.00
2018-12-02T07:52:38.180Z,9.20
2018-12-02T07:55:07.979Z,9.01
2018-12-02T07:57:36.094Z,9.03
2018-12-02T08:00:09.582Z,9.07
2018-12-02T08:02:37.618Z,9.12
2018-12-02T08:05:06.566Z,9.05
2018-12-02T08:07:34.573Z,9.12
2018-12-02T08:10:02.551Z,9.14
2018-12-02T08:12:30.728Z,8.92
2018-12-02T08:14:58.879Z,9.11
2018-12-02T08:17:26.904Z,9.23
2018-12-02T08:19:54.963Z,9.32
2018-12-02T08:22:22.951Z,9.18
2018-12-02T08:46:12.450Z,9.16
2018-12-02T08:51:42.510Z,9.18
2018-12-02T08:54:10.476Z,9.15
2018-12-02T08:56:50.443Z,9.17
2018-12-02T08:59:18.401Z,8.92
2018-12-02T09:01:46.372Z,8.89
2018-12-02T09:04:14.355Z,8.91
2018-12-02T09:06:42.328Z,8.92
2018-12-02T09:09:10.778Z,8.96
2018-12-02T09:11:38.822Z,8.90
2018-12-02T09:14:06.906Z,9.02
2018-12-02T09:16:34.874Z,9.05
2018-12-02T09:19:02.845Z,9.07
2018-12-02T09:21:30.853Z,9.13
2018-12-02T09:23:58.818Z,9.13
2018-12-02T09:26:26.798Z,9.16
2018-12-02T09:28:54.750Z,9.23
2018-12-02T09:31:22.714Z,9.20
2018-12-02T09:33:50.692Z,9.20
2018-12-02T09:36:18.662Z,9.28
2018-12-02T09:38:46.631Z,9.32
2018-12-02T09:41:14.612Z,9.27
2018-12-02T09:43:42.570Z,9.21
2018-12-02T09:46:10.535Z,9.23
2018-12-02T09:48:38.486Z,9.25
2018-12-02T09:51:06.748Z,9.24
2018-12-02T09:53:34.758Z,9.29
2018-12-02T09:56:02.717Z,9.40
2018-12-02T09:58:30.978Z,9.39
2018-12-02T10:00:59.949Z,9.42
2018-12-02T10:03:28.009Z,9.38
2018-12-02T10:05:55.987Z,9.34
2018-12-02T10:08:23.924Z,9.43
2018-12-02T10:10:51.926Z,9.45
2018-12-02T10:13:21.327Z,9.66
2018-12-02T10:15:49.342Z,9.65
2018-12-02T10:18:17.311Z,9.67
2018-12-02T10:20:45.262Z,9.59
2018-12-02T10:23:13.230Z,9.57
2018-12-02T10:25:41.223Z,9.64
2018-12-02T10:28:09.749Z,9.69
2018-12-02T10:30:38.863Z,9.86
2018-12-02T10:33:06.867Z,9.77
2018-12-02T10:35:34.986Z,9.81
2018-12-02T10:38:02.955Z,9.85
2018-12-02T10:40:30.978Z,9.86
2018-12-02T10:42:58.930Z,9.77
2018-12-02T10:45:27.502Z,9.87
2018-12-02T10:47:57.510Z,10.03
2018-12-02T10:50:29.658Z,9.74
2018-12-02T10:52:58.915Z,9.73
2018-12-02T10:55:42.283Z,9.75
2018-12-02T10:58:12.004Z,9.60
2018-12-02T11:00:45.458Z,9.70
2018-12-02T11:03:13.422Z,9.71
2018-12-02T11:05:41.385Z,9.86
2018-12-02T11:08:09.354Z,9.75
2018-12-02T11:10:37.294Z,9.81
2018-12-02T11:13:05.458Z,9.86
2018-12-02T11:15:33.458Z,9.96
2018-12-02T11:18:01.443Z,9.86
2018-12-02T11:20:29.406Z,9.95
2018-12-02T11:22:57.475Z,9.96
2018-12-02T11:25:25.430Z,9.94
2018-12-02T11:27:53.398Z,9.97
2018-12-02T11:30:21.383Z,9.83
2018-12-02T11:32:49.467Z,9.86
2018-12-02T11:35:18.327Z,9.86
2018-12-02T11:37:46.990Z,9.84
2018-12-02T11:40:19.191Z,9.81
2018-12-02T11:42:47.377Z,9.71
2018-12-02T11:45:15.794Z,9.76
2018-12-02T11:47:44.906Z,9.95
2018-12-02T11:50:14.567Z,9.96
2018-12-02T11:52:42.527Z,9.96
2018-12-02T11:55:11.527Z,10.17
2018-12-02T11:57:39.586Z,10.16
2018-12-02T12:00:12.228Z,10.08
2018-12-02T12:02:40.179Z,10.26
2018-12-02T12:05:08.771Z,10.32
2018-12-02T12:07:36.795Z,10.32
2018-12-02T12:10:06.821Z,10.36
2018-12-02T12:12:34.779Z,10.40
2018-12-02T12:15:02.742Z,10.48
2018-12-02T12:17:30.718Z,10.47
2018-12-02T12:19:58.678Z,10.41
2018-12-02T12:22:26.662Z,10.47
2018-12-02T12:24:54.636Z,10.55
2018-12-02T12:27:22.601Z,10.58
2018-12-02T12:29:50.564Z,10.48
2018-12-02T12:32:18.515Z,10.46
2018-12-02T12:34:46.511Z,10.55
2018-12-02T12:37:14.478Z,10.62
2018-12-02T12:39:42.450Z,10.55
2018-12-02T12:42:10.406Z,10.60
2018-12-02T12:44:38.397Z,10.69
2018-12-02T12:47:06.353Z,10.70
2018-12-02T12:49:34.342Z,10.49
2018-12-02T12:52:02.470Z,10.58
2018-12-02T12:54:30.451Z,10.52
2018-12-02T12:56:58.427Z,10.42
2018-12-02T12:59:26.404Z,10.53
2018-12-02T13:01:54.359Z,10.58
2018-12-02T13:04:22.374Z,10.75
2018-12-02T13:06:50.342Z,10.80
2018-12-02T13:09:18.397Z,10.67
2018-12-02T13:11:46.348Z,10.70
2018-12-02T13:14:14.303Z,10.92
2018-12-02T13:16:42.282Z,11.09
2018-12-02T13:19:10.246Z,11.18
2018-12-02T13:21:38.226Z,11.08
2018-12-02T13:24:06.286Z,11.28
2018-12-02T13:26:34.327Z,11.08
2018-12-02T13:29:02.303Z,11.21
2018-12-02T13:31:30.274Z,11.22
2018-12-02T13:33:58.278Z,11.28
2018-12-02T13:36:26.351Z,11.27
2018-12-02T13:38:54.310Z,11.32
2018-12-02T13:41:22.279Z,11.42
2018-12-02T13:43:50.268Z,11.39
2018-12-02T13:46:18.248Z,11.44
2018-12-02T13:48:46.211Z,11.35
2018-12-02T13:51:14.212Z,11.34
2018-12-02T13:53:47.687Z,11.51
2018-12-02T13:56:15.694Z,11.41
2018-12-02T13:58:43.696Z,11.45
2018-12-02T14:01:11.666Z,11.54
2018-12-02T14:03:39.626Z,11.48
2018-12-02T14:06:07.590Z,11.54
2018-12-02T14:08:35.546Z,11.63
2018-12-02T14:11:03.538Z,11.49
2018-12-02T14:13:31.510Z,11.41
2018-12-02T14:16:10.406Z,11.45
2018-12-02T14:18:40.713Z,11.83
2018-12-02T14:21:09.258Z,11.70
2018-12-02T14:23:38.264Z,11.60
2018-12-02T14:26:10.776Z,11.51
2018-12-02T14:28:45.835Z,11.63
2018-12-02T14:31:13.882Z,11.65
2018-12-02T14:33:41.850Z,11.58
2018-12-02T14:36:09.874Z,11.63
2018-12-02T14:38:37.854Z,11.79
2018-12-02T14:41:06.302Z,11.70
2018-12-02T14:43:34.290Z,11.72
2018-12-02T14:46:02.259Z,11.76
2018-12-02T14:48:30.318Z,11.72
2018-12-02T14:50:58.286Z,11.74
2018-12-02T14:53:26.254Z,11.76
2018-12-02T14:55:54.230Z,11.86
2018-12-02T14:58:22.219Z,11.90
2018-12-02T15:00:50.150Z,11.99
2018-12-02T15:03:18.094Z,12.02
2018-12-02T15:05:46.135Z,12.10
2018-12-02T15:08:14.087Z,12.10
2018-12-02T15:10:42.047Z,11.93
2018-12-02T15:13:10.183Z,11.86
2018-12-02T15:15:38.239Z,11.89
2018-12-02T15:18:06.934Z,11.98
2018-12-02T15:20:34.918Z,12.01
2018-12-02T15:23:02.925Z,12.09
2018-12-02T15:25:30.851Z,12.10
2018-12-02T15:27:58.822Z,12.17
2018-12-02T15:30:26.781Z,12.10
2018-12-02T15:32:54.787Z,12.19
2018-12-02T15:35:22.777Z,12.19
2018-12-02T15:37:50.766Z,12.26
2018-12-02T15:40:18.895Z,12.15
2018-12-02T15:42:51.954Z,12.19
2018-12-02T15:45:20.737Z,12.16
2018-12-02T15:47:48.755Z,12.24
2018-12-02T15:50:19.893Z,12.27
2018-12-02T15:52:47.869Z,12.29
2018-12-02T15:55:20.343Z,12.33
2018-12-02T15:57:48.302Z,12.41
2018-12-02T16:00:17.601Z,12.40
2018-12-02T16:02:45.579Z,12.34
2018-12-02T16:05:13.549Z,12.46
2018-12-02T16:07:41.553Z,12.50
2018-12-02T16:10:10.859Z,12.42
2018-12-02T16:12:38.859Z,12.49
2018-12-02T16:15:12.023Z,12.49
2018-12-02T16:17:39.987Z,12.55
2018-12-02T16:20:12.570Z,12.67
2018-12-02T16:22:40.751Z,12.83
2018-12-02T16:25:09.679Z,12.77
2018-12-02T16:27:37.630Z,12.56
2018-12-02T16:30:10.618Z,12.60
2018-12-02T16:32:38.654Z,12.68
2018-12-02T16:35:08.161Z,12.74
2018-12-02T16:37:36.186Z,12.94
2018-12-02T16:40:04.875Z,12.87
2018-12-02T16:42:32.843Z,12.81
2018-12-02T16:45:00.815Z,12.76
2018-12-02T16:47:28.789Z,12.77
2018-12-02T16:49:56.751Z,12.80
2018-12-02T16:52:24.717Z,12.83
2018-12-02T16:54:52.678Z,12.88
2018-12-02T16:57:20.650Z,12.86
2018-12-02T16:59:48.622Z,12.95
2018-12-02T17:02:16.608Z,12.93
2018-12-02T17:04:44.571Z,12.87
2018-12-02T17:07:12.539Z,12.80
2018-12-02T17:09:40.500Z,12.77
2018-12-02T17:12:08.466Z,12.84
2018-12-02T17:14:38.866Z,12.76
2018-12-02T17:17:04.610Z,12.85
2018-12-02T17:19:32.580Z,12.88
2018-12-02T17:22:00.550Z,12.77
2018-12-02T17:24:28.522Z,12.66
2018-12-02T17:26:56.587Z,12.66
2018-12-02T17:29:24.541Z,12.69
2018-12-02T17:31:59.988Z,12.74
2018-12-02T17:34:28.067Z,12.95
2018-12-02T17:36:56.174Z,13.08
2018-12-02T17:39:26.138Z,13.09
2018-12-02T17:42:01.303Z,13.19
2018-12-02T17:44:29.274Z,13.20
2018-12-02T17:46:57.239Z,13.24
2018-12-02T17:49:25.221Z,13.28
2018-12-02T17:51:53.182Z,13.12
2018-12-02T17:54:21.151Z,13.15
2018-12-02T17:56:49.094Z,13.07
2018-12-02T17:59:17.058Z,13.09
2018-12-02T18:01:45.018Z,13.03
2018-12-02T18:04:12.985Z,13.09
2018-12-02T18:06:40.954Z,13.07
2018-12-02T18:09:11.795Z,13.09
2018-12-02T18:11:39.751Z,13.23
2018-12-02T18:14:07.775Z,13.38
2018-12-02T18:16:35.744Z,13.42
2018-12-02T18:19:03.716Z,13.37
2018-12-02T18:21:31.714Z,13.35
2018-12-02T18:23:59.678Z,13.31
2018-12-02T18:26:27.639Z,13.17
2018-12-02T18:28:55.599Z,13.14
2018-12-02T18:31:23.584Z,13.16
2018-12-02T18:33:51.595Z,13.18
2018-12-02T18:36:21.898Z,13.27
2018-12-02T18:38:50.395Z,13.29
2018-12-02T18:41:28.674Z,13.29
2018-12-02T18:43:56.655Z,13.22
2018-12-02T18:46:24.623Z,13.02
2018-12-02T18:48:52.617Z,12.95
2018-12-02T18:51:20.842Z,12.94
2018-12-02T18:53:48.811Z,12.92
2018-12-02T18:56:16.838Z,12.86
2018-12-02T18:58:44.862Z,12.89
2018-12-02T19:01:12.847Z,13.02
2018-12-02T19:03:40.835Z,13.08
2018-12-02T19:06:09.212Z,13.09
2018-12-02T19:08:37.357Z,12.97
2018-12-02T19:11:05.941Z,12.93
2018-12-02T19:13:33.946Z,12.82
2018-12-02T19:16:02.068Z,12.83
2018-12-02T19:18:30.169Z,12.88
2018-12-02T19:21:00.055Z,12.94
2018-12-02T19:23:30.551Z,12.88
2018-12-02T19:25:58.536Z,12.98
2018-12-02T19:28:26.507Z,12.97
2018-12-02T19:30:54.549Z,12.91
2018-12-02T19:33:24.031Z,13.02
2018-12-02T19:35:54.567Z,13.09
2018-12-02T19:38:23.758Z,13.06
2018-12-02T19:40:51.844Z,13.15
2018-12-02T19:43:19.943Z,13.12
2018-12-02T19:45:49.563Z,13.06
2018-12-02T19:48:17.526Z,12.88
2018-12-02T19:50:45.706Z,12.94
2018-12-02T19:53:13.675Z,12.94
2018-12-02T19:55:41.768Z,12.98
2018-12-02T19:58:11.047Z,13.10
2018-12-02T20:00:42.899Z,13.13
2018-12-02T20:03:12.950Z,12.99
2018-12-02T20:05:40.147Z,12.98
2018-12-02T20:08:09.626Z,12.95
2018-12-02T20:10:37.922Z,13.01
2018-12-02T20:13:10.109Z,12.99
2018-12-02T20:15:42.266Z,12.99
2018-12-02T20:18:10.260Z,12.92
2018-12-02T20:20:43.614Z,13.02
2018-12-02T20:23:26.350Z,12.93
2018-12-02T20:25:55.663Z,13.05
2018-12-02T20:28:25.970Z,12.96
2018-12-02T20:30:53.948Z,12.89
2018-12-02T20:33:21.930Z,13.07
2018-12-02T20:35:49.903Z,13.02
2018-12-02T20:38:17.867Z,13.07
2018-12-02T20:40:45.841Z,13.02
2018-12-02T20:43:13.815Z,13.09
2018-12-02T20:45:41.798Z,12.94
2018-12-02T20:48:09.772Z,13.03
2018-12-02T20:50:37.944Z,13.07
2018-12-02T20:53:05.920Z,12.99
2018-12-02T20:55:34.226Z,12.92
2018-12-02T20:58:02.874Z,12.96
2018-12-02T21:00:30.852Z,13.14
2018-12-02T21:03:03.400Z,13.19
2018-12-02T21:05:33.162Z,13.17
2018-12-02T21:08:01.130Z,13.13
2018-12-02T21:10:29.271Z,13.01
2018-12-02T21:12:57.294Z,13.20
2018-12-02T21:15:25.472Z,13.26
2018-12-02T21:17:53.558Z,13.13
2018-12-02T21:20:21.547Z,13.30
2018-12-02T21:22:49.511Z,13.28
2018-12-02T21:25:20.248Z,13.16
2018-12-02T21:27:47.198Z,13.16
2018-12-02T21:30:18.492Z,13.08
2018-12-02T21:32:46.542Z,13.02
2018-12-02T21:35:14.531Z,13.17
2018-12-02T21:37:42.904Z,13.13
2018-12-02T21:40:15.451Z,13.08
2018-12-02T21:42:43.487Z,13.13
2018-12-02T21:45:15.278Z,13.16
2018-12-02T21:47:45.794Z,13.21
2018-12-02T21:50:17.350Z,13.26
2018-12-02T21:52:45.366Z,13.27
2018-12-02T21:55:13.423Z,13.27
2018-12-02T21:57:41.586Z,13.19
2018-12-02T22:00:17.419Z,13.11
2018-12-02T22:02:45.572Z,13.25
2018-12-02T22:05:13.595Z,13.07
2018-12-02T22:07:41.620Z,12.96
2018-12-02T22:10:12.295Z,12.95
2018-12-02T22:12:40.570Z,12.96
2018-12-02T22:15:09.054Z,12.96
2018-12-02T22:17:37.360Z,13.01
2018-12-02T22:20:08.171Z,12.97
2018-12-02T22:22:36.241Z,13.11
2018-12-02T22:25:04.386Z,12.95
2018-12-02T22:27:32.397Z,12.88
2018-12-02T22:30:00.717Z,12.97
2018-12-02T22:32:28.707Z,12.88
2018-12-02T22:34:56.674Z,12.96
2018-12-02T22:37:24.726Z,12.87
2018-12-02T22:39:52.690Z,12.83
2018-12-02T22:42:20.682Z,12.61
2018-12-02T22:44:48.642Z,12.68
2018-12-02T22:47:16.614Z,12.64
2018-12-02T22:49:44.579Z,12.65
2018-12-02T22:52:12.558Z,12.72
2018-12-02T22:54:40.515Z,12.71
2018-12-02T22:57:08.500Z,12.86
2018-12-02T22:59:36.458Z,12.79
2018-12-02T23:02:09.910Z,12.65
2018-12-02T23:04:37.934Z,12.79
2018-12-02T23:07:05.915Z,12.77
2018-12-02T23:09:33.879Z,12.89
2018-12-02T23:12:01.848Z,12.88
2018-12-02T23:14:29.797Z,12.95
2018-12-02T23:17:09.193Z,12.96
2018-12-02T23:19:37.198Z,12.97
2018-12-02T23:22:05.293Z,12.95
2018-12-02T23:24:33.250Z,13.07
2018-12-02T23:27:01.618Z,12.97
2018-12-02T23:29:29.643Z,13.04
2018-12-02T23:31:57.602Z,12.87
2018-12-02T23:34:25.634Z,12.67
2018-12-02T23:36:53.615Z,12.82
2018-12-02T23:39:21.590Z,12.82
2018-12-02T23:41:49.554Z,12.83
2018-12-02T23:44:17.627Z,12.96
2018-12-02T23:46:45.595Z,12.91
2018-12-02T23:49:13.562Z,12.84
2018-12-02T23:51:41.620Z,12.92
2018-12-02T23:54:09.582Z,12.94
2018-12-02T23:56:37.567Z,12.96
2018-12-02T23:59:05.586Z,13.03
